createdAt,value
2018-03-20T00:02:05.215Z,82.10
2018-03-20T00:04:32.730Z,82.20
2018-03-20T00:07:00.210Z,75.70
2018-03-20T00:09:28.520Z,77.50
2018-03-20T00:11:56.045Z,77.50
2018-03-20T00:14:24.324Z,86.80
2018-03-20T00:16:52.583Z,82.40
2018-03-20T00:19:20.097Z,82.40
2018-03-20T00:21:47.593Z,84.50
2018-03-20T00:24:15.116Z,82.90
2018-03-20T00:26:42.587Z,82.30
2018-03-20T00:29:10.109Z,86.30
2018-03-20T00:31:37.601Z,86.20
2018-03-20T00:34:05.106Z,79.40
2018-03-20T00:36:33.364Z,84.10
2018-03-20T00:39:00.939Z,84.10
2018-03-20T00:41:28.419Z,84.70
2018-03-20T00:43:55.946Z,82.30
2018-03-20T00:46:23.438Z,81.30
2018-03-20T00:48:50.955Z,81.50
2018-03-20T00:51:18.438Z,82.90
2018-03-20T00:53:45.931Z,86.30
2018-03-20T00:56:13.454Z,83.70
2018-03-20T00:58:41.732Z,86.00
2018-03-20T01:01:10.006Z,85.70
2018-03-20T01:03:38.281Z,79.40
2018-03-20T01:06:06.528Z,79.40
2018-03-20T01:08:34.031Z,78.70
2018-03-20T01:11:01.520Z,82.20
2018-03-20T01:13:29.070Z,80.00
2018-03-20T01:15:56.554Z,81.70
2018-03-20T01:18:24.079Z,79.40
2018-03-20T01:20:51.564Z,81.30
2018-03-20T01:23:19.074Z,82.80
2018-03-20T01:25:47.324Z,82.50
2018-03-20T01:28:14.849Z,82.50
2018-03-20T01:30:42.364Z,84.30
2018-03-20T01:33:10.769Z,80.80
2018-03-20T01:35:38.243Z,80.70
2018-03-20T01:38:06.055Z,82.20
2018-03-20T01:40:34.309Z,85.00
2018-03-20T01:43:01.786Z,84.90
2018-03-20T01:45:30.056Z,86.30
2018-03-20T01:47:57.547Z,86.30
2018-03-20T01:50:25.032Z,87.00
2018-03-20T01:53:04.496Z,81.60
2018-03-20T01:55:32.001Z,78.80
2018-03-20T01:57:59.505Z,76.30
2018-03-20T02:00:26.976Z,79.00
2018-03-20T02:02:54.588Z,80.50
2018-03-20T02:05:22.098Z,85.20
2018-03-20T02:07:49.587Z,82.40
2018-03-20T02:10:17.064Z,80.80
2018-03-20T02:12:44.560Z,87.50
2018-03-20T02:15:12.047Z,80.80
2018-03-20T02:17:40.344Z,77.80
2018-03-20T02:20:07.822Z,77.90
2018-03-20T02:22:35.304Z,77.40
2018-03-20T02:25:02.807Z,75.40
2018-03-20T02:27:31.057Z,75.40
2018-03-20T02:29:58.587Z,75.40
2018-03-20T02:32:26.072Z,76.50
2018-03-20T02:34:53.581Z,78.20
2018-03-20T02:37:21.100Z,77.20
2018-03-20T02:39:49.348Z,83.70
2018-03-20T02:42:16.956Z,83.70
2018-03-20T02:44:44.454Z,78.90
2018-03-20T02:47:11.953Z,81.00
2018-03-20T02:49:40.219Z,77.90
2018-03-20T02:52:07.700Z,77.90
2018-03-20T02:54:35.977Z,76.40
2018-03-20T02:57:04.259Z,82.30
2018-03-20T02:59:31.767Z,82.20
2018-03-20T03:01:59.277Z,88.00
2018-03-20T03:04:26.756Z,81.40
2018-03-20T03:06:54.260Z,84.60
2018-03-20T03:09:21.727Z,84.10
2018-03-20T03:11:49.994Z,81.40
2018-03-20T03:14:17.506Z,81.50
2018-03-20T03:16:45.263Z,75.20
2018-03-20T03:19:12.824Z,73.50
2018-03-20T03:21:40.298Z,76.60
2018-03-20T03:24:07.797Z,73.80
2018-03-20T03:26:35.288Z,77.70
2018-03-20T03:29:02.778Z,74.70
2018-03-20T03:31:30.271Z,76.50
2018-03-20T03:33:57.770Z,76.90
2018-03-20T03:36:25.258Z,74.10
2018-03-20T03:38:52.787Z,74.30
2018-03-20T03:41:20.268Z,74.40
2018-03-20T03:43:47.775Z,74.00
2018-03-20T03:46:16.020Z,76.70
2018-03-20T03:48:43.518Z,76.50
2018-03-20T03:51:11.755Z,74.70
2018-03-20T03:53:39.252Z,74.70
2018-03-20T03:56:07.495Z,75.10
2018-03-20T03:58:34.996Z,75.00
2018-03-20T04:01:02.475Z,76.00
2018-03-20T04:03:29.967Z,79.50
2018-03-20T04:05:57.453Z,78.50
2018-03-20T04:08:25.717Z,80.70
2018-03-20T04:10:53.977Z,80.80
2018-03-20T04:13:21.517Z,80.90
2018-03-20T04:15:49.002Z,82.10
2018-03-20T04:18:16.527Z,86.60
2018-03-20T04:20:44.023Z,80.10
2018-03-20T04:23:11.528Z,83.70
2018-03-20T04:25:39.009Z,79.80
2018-03-20T04:28:06.925Z,80.00
2018-03-20T04:30:35.172Z,77.60
2018-03-20T04:33:02.655Z,78.30
2018-03-20T04:35:30.135Z,79.00
2018-03-20T04:37:57.659Z,78.00
2018-03-20T04:40:25.926Z,82.80
2018-03-20T04:42:53.523Z,82.10
2018-03-20T04:45:20.996Z,79.10
2018-03-20T04:47:48.473Z,77.30
2018-03-20T04:50:16.010Z,77.10
2018-03-20T04:52:43.494Z,76.70
2018-03-20T04:55:11.007Z,76.90
2018-03-20T04:57:39.288Z,76.80
2018-03-20T05:00:06.964Z,76.80
2018-03-20T05:02:34.522Z,78.10
2018-03-20T05:05:02.009Z,78.20
2018-03-20T05:07:29.515Z,78.90
2018-03-20T05:09:57.773Z,78.70
2018-03-20T05:12:26.068Z,78.70
2018-03-20T05:14:54.300Z,78.70
2018-03-20T05:17:21.758Z,78.60
2018-03-20T05:20:05.068Z,78.90
2018-03-20T05:22:38.431Z,79.30
2018-03-20T05:25:05.904Z,79.90
2018-03-20T05:27:33.386Z,80.60
2018-03-20T05:30:00.903Z,81.10
2018-03-20T05:32:28.380Z,81.20
2018-03-20T05:34:56.042Z,82.00
2018-03-20T05:37:23.536Z,81.00
2018-03-20T05:39:51.083Z,80.90
2018-03-20T05:42:18.622Z,80.70
2018-03-20T05:44:46.183Z,81.00
2018-03-20T05:47:13.673Z,81.00
2018-03-20T05:49:46.749Z,80.90
2018-03-20T05:52:14.226Z,81.00
2018-03-20T05:54:41.710Z,80.90
2018-03-20T05:57:09.963Z,80.20
2018-03-20T05:59:37.471Z,80.10
2018-03-20T06:02:04.950Z,80.00
2018-03-20T06:04:32.474Z,79.40
2018-03-20T06:06:59.943Z,79.20
2018-03-20T06:09:27.444Z,79.20
2018-03-20T06:11:54.929Z,79.20
2018-03-20T06:14:23.193Z,80.00
2018-03-20T06:16:50.667Z,80.00
2018-03-20T06:19:18.942Z,83.20
2018-03-20T06:21:47.187Z,83.70
2018-03-20T06:24:14.691Z,83.50
2018-03-20T06:26:42.171Z,83.60
2018-03-20T06:29:09.727Z,82.80
2018-03-20T06:31:37.214Z,83.00
2018-03-20T06:34:04.753Z,81.00
2018-03-20T06:36:32.229Z,80.40
2018-03-20T06:38:59.767Z,81.30
2018-03-20T06:41:27.244Z,81.10
2018-03-20T06:43:54.741Z,80.60
2018-03-20T06:46:23.015Z,78.80
2018-03-20T06:48:50.522Z,78.80
2018-03-20T06:51:18.042Z,77.90
2018-03-20T06:53:45.558Z,77.20
2018-03-20T06:56:13.186Z,75.50
2018-03-20T06:58:40.664Z,74.70
2018-03-20T07:01:08.178Z,73.50
2018-03-20T07:03:36.838Z,72.10
2018-03-20T07:06:05.167Z,70.50
2018-03-20T07:08:32.657Z,70.50
2018-03-20T07:11:00.230Z,69.80
2018-03-20T07:13:27.713Z,68.00
2018-03-20T07:15:55.979Z,65.70
2018-03-20T07:18:24.291Z,65.70
2018-03-20T07:20:51.791Z,65.70
2018-03-20T07:23:19.307Z,66.10
2018-03-20T07:25:46.822Z,66.80
2018-03-20T07:28:14.304Z,67.20
2018-03-20T07:30:41.813Z,65.40
2018-03-20T07:33:09.294Z,61.20
2018-03-20T07:35:36.793Z,61.70
2018-03-20T07:38:04.328Z,59.10
2018-03-20T07:40:32.582Z,64.30
2018-03-20T07:43:00.066Z,64.20
2018-03-20T07:45:28.344Z,55.50
2018-03-20T07:47:56.602Z,57.90
2018-03-20T07:50:24.100Z,57.80
2018-03-20T07:52:51.564Z,55.60
2018-03-20T07:55:19.060Z,53.10
2018-03-20T07:57:46.528Z,53.90
2018-03-20T08:00:14.032Z,51.00
2018-03-20T08:02:41.525Z,49.50
2018-03-20T08:05:09.028Z,48.50
2018-03-20T08:07:37.279Z,43.70
2018-03-20T08:10:04.787Z,43.60
2018-03-20T08:12:32.262Z,44.00
2018-03-20T08:14:59.756Z,42.20
2018-03-20T08:17:27.215Z,40.90
2018-03-20T08:19:55.485Z,39.20
2018-03-20T08:22:22.950Z,39.10
2018-03-20T08:24:50.560Z,34.80
2018-03-20T08:27:18.040Z,34.50
2018-03-20T08:29:45.504Z,31.90
2018-03-20T08:32:13.018Z,31.80
2018-03-20T08:34:40.501Z,32.30
2018-03-20T08:37:07.984Z,32.00
2018-03-20T08:39:35.471Z,31.90
2018-03-20T08:42:03.755Z,30.60
2018-03-20T08:44:31.215Z,30.50
2018-03-20T08:46:59.618Z,30.00
2018-03-20T08:49:27.109Z,29.80
2018-03-20T08:51:54.602Z,29.60
2018-03-20T08:54:22.837Z,30.30
2018-03-20T08:56:50.383Z,30.30
2018-03-20T08:59:17.851Z,30.80
2018-03-20T09:01:45.438Z,31.40
2018-03-20T09:04:12.963Z,31.20
2018-03-20T09:06:40.456Z,30.50
2018-03-20T09:09:07.929Z,31.10
2018-03-20T09:11:36.155Z,32.30
2018-03-20T09:14:03.653Z,32.30
2018-03-20T09:16:31.891Z,32.50
2018-03-20T09:18:59.393Z,32.50
2018-03-20T09:21:27.628Z,33.80
2018-03-20T09:23:55.119Z,33.80
2018-03-20T09:26:22.592Z,33.90
2018-03-20T09:28:50.088Z,33.90
2018-03-20T09:31:17.553Z,34.60
2018-03-20T09:33:45.132Z,33.60
2018-03-20T09:36:12.600Z,33.60
2018-03-20T09:38:40.111Z,33.90
2018-03-20T09:41:07.581Z,34.70
2018-03-20T09:43:35.083Z,33.50
2018-03-20T09:46:03.311Z,37.50
2018-03-20T09:48:30.791Z,37.50
2018-03-20T09:51:22.076Z,37.30
2018-03-20T09:53:49.563Z,38.60
2018-03-20T09:56:17.041Z,37.20
2018-03-20T09:58:44.533Z,35.80
2018-03-20T10:01:11.995Z,37.20
2018-03-20T10:03:39.501Z,34.00
2018-03-20T10:06:07.007Z,35.90
2018-03-20T10:08:34.937Z,36.30
2018-03-20T10:11:02.411Z,33.40
2018-03-20T10:13:30.655Z,34.90
2018-03-20T10:15:58.112Z,34.90
2018-03-20T10:18:25.627Z,32.80
2018-03-20T10:20:53.102Z,32.40
2018-03-20T10:23:20.716Z,33.00
2018-03-20T10:25:48.953Z,33.10
2018-03-20T10:28:16.557Z,33.10
2018-03-20T10:30:44.836Z,33.10
2018-03-20T10:33:13.083Z,29.30
2018-03-20T10:35:40.603Z,29.90
2018-03-20T10:38:08.071Z,30.00
2018-03-20T10:40:35.562Z,30.80
2018-03-20T10:43:03.033Z,31.00
2018-03-20T10:45:31.290Z,33.80
2018-03-20T10:47:58.761Z,33.80
2018-03-20T10:50:26.292Z,33.80
2018-03-20T10:52:53.746Z,32.50
2018-03-20T10:55:21.243Z,32.70
2018-03-20T10:57:49.475Z,37.20
2018-03-20T11:00:17.004Z,37.20
2018-03-20T11:02:50.234Z,39.20
2018-03-20T11:05:17.723Z,38.50
2018-03-20T11:07:45.964Z,42.20
2018-03-20T11:10:13.734Z,42.10
2018-03-20T11:12:41.219Z,43.20
2018-03-20T11:15:09.475Z,44.30
2018-03-20T11:17:36.986Z,44.30
2018-03-20T11:20:05.229Z,45.30
2018-03-20T11:22:33.544Z,45.40
2018-03-20T11:25:01.082Z,45.40
2018-03-20T11:27:28.574Z,43.30
2018-03-20T11:29:56.094Z,44.60
2018-03-20T11:32:23.543Z,46.80
2018-03-20T11:34:51.791Z,47.60
2018-03-20T11:37:19.286Z,47.50
2018-03-20T11:39:47.537Z,46.60
2018-03-20T11:42:15.050Z,46.60
2018-03-20T11:44:42.530Z,48.20
2018-03-20T11:47:10.030Z,46.80
2018-03-20T11:49:37.524Z,45.40
2018-03-20T11:52:05.028Z,44.90
2018-03-20T11:54:32.494Z,45.60
2018-03-20T11:57:00.780Z,48.20
2018-03-20T11:59:29.003Z,46.50
2018-03-20T12:01:56.503Z,46.40
2018-03-20T12:04:24.755Z,46.40
2018-03-20T12:06:52.261Z,46.40
2018-03-20T12:09:49.516Z,46.30
2018-03-20T12:12:17.046Z,45.60
2018-03-20T12:14:45.308Z,42.70
2018-03-20T12:17:12.812Z,42.10
2018-03-20T12:19:40.296Z,39.70
2018-03-20T12:22:07.802Z,37.10
2018-03-20T12:24:36.122Z,35.90
2018-03-20T12:27:03.646Z,36.00
2018-03-20T12:29:31.968Z,38.00
2018-03-20T12:31:59.441Z,37.80
2018-03-20T12:34:26.940Z,39.20
2018-03-20T12:36:55.184Z,40.90
2018-03-20T12:39:22.679Z,40.80
2018-03-20T12:41:50.952Z,40.90
2018-03-20T12:44:19.217Z,41.50
2018-03-20T12:46:47.539Z,39.60
2018-03-20T12:49:15.024Z,39.60
2018-03-20T12:51:42.496Z,42.00
2018-03-20T12:54:09.990Z,42.50
2018-03-20T12:56:37.468Z,42.10
2018-03-20T12:59:05.084Z,42.20
2018-03-20T13:01:33.329Z,42.50
2018-03-20T13:04:00.802Z,42.30
2018-03-20T13:06:28.306Z,42.80
2018-03-20T13:08:55.794Z,41.40
2018-03-20T13:11:23.601Z,41.50
2018-03-20T13:13:51.089Z,43.50
2018-03-20T13:16:18.606Z,45.40
2018-03-20T13:18:46.069Z,45.10
2018-03-20T13:21:13.575Z,45.70
2018-03-20T13:23:41.030Z,45.90
2018-03-20T13:26:08.561Z,46.10
2018-03-20T13:28:36.819Z,46.20
2018-03-20T13:31:04.359Z,46.20
2018-03-20T13:33:31.856Z,46.80
2018-03-20T13:36:00.098Z,46.40
2018-03-20T13:38:27.585Z,46.40
2018-03-20T13:40:55.077Z,46.20
2018-03-20T13:43:22.556Z,45.50
2018-03-20T13:45:50.031Z,45.50
2018-03-20T13:48:17.535Z,45.20
2018-03-20T13:50:45.011Z,45.20
2018-03-20T13:53:28.299Z,44.60
2018-03-20T13:55:56.547Z,44.60
2018-03-20T13:58:24.023Z,44.60
2018-03-20T14:00:52.329Z,44.10
2018-03-20T14:03:19.806Z,44.10
2018-03-20T14:05:47.516Z,42.20
2018-03-20T14:08:14.987Z,38.40
2018-03-20T14:10:43.229Z,33.30
2018-03-20T14:13:10.736Z,33.30
2018-03-20T14:15:38.236Z,34.50
2018-03-20T14:18:05.735Z,34.40
2018-03-20T14:20:33.991Z,35.00
2018-03-20T14:23:01.517Z,35.00
2018-03-20T14:25:29.011Z,34.90
2018-03-20T14:27:57.287Z,31.10
2018-03-20T14:30:24.764Z,30.90
2018-03-20T14:32:53.065Z,28.90
2018-03-20T14:35:20.561Z,28.80
2018-03-20T14:37:48.069Z,29.90
2018-03-20T14:40:15.547Z,30.10
2018-03-20T14:42:43.098Z,31.60
2018-03-20T14:45:10.587Z,31.30
2018-03-20T14:47:38.133Z,31.20
2018-03-20T14:50:05.620Z,29.80
2018-03-20T14:52:33.170Z,29.80
2018-03-20T14:55:00.682Z,30.00
2018-03-20T14:57:28.925Z,29.60
2018-03-20T14:59:56.434Z,29.60
2018-03-20T15:02:23.923Z,29.70
2018-03-20T15:04:51.438Z,31.00
2018-03-20T15:07:18.949Z,30.10
2018-03-20T15:09:46.585Z,29.50
2018-03-20T15:12:14.075Z,30.40
2018-03-20T15:14:41.567Z,30.60
2018-03-20T15:17:09.127Z,30.70
2018-03-20T15:19:36.658Z,30.20
2018-03-20T15:22:04.922Z,30.20
2018-03-20T15:24:33.271Z,29.80
2018-03-20T15:27:00.736Z,30.30
2018-03-20T15:29:28.252Z,30.60
2018-03-20T15:31:56.492Z,29.90
2018-03-20T15:34:24.106Z,29.90
2018-03-20T15:36:51.626Z,30.70
2018-03-20T15:39:19.993Z,30.00
2018-03-20T15:41:47.467Z,30.00
2018-03-20T15:44:15.719Z,31.00
2018-03-20T15:46:43.226Z,31.10
2018-03-20T15:49:10.849Z,30.80
2018-03-20T15:51:38.322Z,29.00
2018-03-20T15:54:05.910Z,29.90
2018-03-20T15:56:33.421Z,30.80
2018-03-20T15:59:00.913Z,30.40
2018-03-20T16:01:28.447Z,30.70
2018-03-20T16:03:55.925Z,32.00
2018-03-20T16:06:23.461Z,31.70
2018-03-20T16:08:50.940Z,33.10
2018-03-20T16:11:19.203Z,31.40
2018-03-20T16:13:47.468Z,31.70
2018-03-20T16:16:14.980Z,31.80
2018-03-20T16:18:42.478Z,31.30
2018-03-20T16:21:10.037Z,32.30
2018-03-20T16:23:37.544Z,31.10
2018-03-20T16:26:05.881Z,31.20
2018-03-20T16:28:33.375Z,31.30
2018-03-20T16:31:00.868Z,31.90
2018-03-20T16:33:28.340Z,33.30
2018-03-20T16:35:55.849Z,31.40
2018-03-20T16:38:23.330Z,31.80
2018-03-20T16:40:50.842Z,33.90
2018-03-20T16:43:19.095Z,32.30
2018-03-20T16:45:46.624Z,32.40
2018-03-20T16:48:14.104Z,32.20
2018-03-20T16:50:41.619Z,33.10
2018-03-20T16:53:10.026Z,30.50
2018-03-20T16:55:37.546Z,32.20
2018-03-20T16:58:05.044Z,31.40
2018-03-20T17:00:32.682Z,30.80
2018-03-20T17:03:00.166Z,29.60
2018-03-20T17:05:27.658Z,30.00
2018-03-20T17:07:55.169Z,32.90
2018-03-20T17:10:22.658Z,32.00
2018-03-20T17:12:50.193Z,32.50
2018-03-20T17:15:17.662Z,32.40
2018-03-20T17:17:45.347Z,33.40
2018-03-20T17:20:12.812Z,33.50
2018-03-20T17:22:40.388Z,33.80
2018-03-20T17:25:07.837Z,31.40
2018-03-20T17:27:36.115Z,35.40
2018-03-20T17:30:04.352Z,35.40
2018-03-20T17:32:31.856Z,35.30
2018-03-20T17:35:00.111Z,34.80
2018-03-20T17:37:27.612Z,34.90
2018-03-20T17:39:55.175Z,34.60
2018-03-20T17:42:23.408Z,37.40
2018-03-20T17:44:51.653Z,36.70
2018-03-20T17:47:19.185Z,36.20
2018-03-20T17:49:46.752Z,36.80
2018-03-20T17:52:14.287Z,35.70
2018-03-20T17:54:41.777Z,36.70
2018-03-20T17:57:09.308Z,36.40
2018-03-20T17:59:36.845Z,36.20
2018-03-20T18:02:05.111Z,36.20
2018-03-20T18:04:32.607Z,36.20
2018-03-20T18:07:00.107Z,36.90
2018-03-20T18:09:27.595Z,35.70
2018-03-20T18:11:55.956Z,34.40
2018-03-20T18:14:23.420Z,34.40
2018-03-20T18:16:51.840Z,37.30
2018-03-20T18:19:19.293Z,37.30
2018-03-20T18:21:46.774Z,37.80
2018-03-20T18:24:14.287Z,36.60
2018-03-20T18:26:42.527Z,39.00
2018-03-20T18:29:10.051Z,39.00
2018-03-20T18:31:37.527Z,38.90
2018-03-20T18:34:05.046Z,39.40
2018-03-20T18:36:32.525Z,39.10
2018-03-20T18:39:00.026Z,38.00
2018-03-20T18:41:27.502Z,37.70
2018-03-20T18:43:55.794Z,38.70
2018-03-20T18:46:23.286Z,38.70
2018-03-20T18:48:50.795Z,38.50
2018-03-20T18:51:19.027Z,39.90
2018-03-20T18:53:46.530Z,39.90
2018-03-20T18:56:14.778Z,40.30
2018-03-20T18:58:42.292Z,40.30
2018-03-20T19:01:09.763Z,40.70
2018-03-20T19:03:37.284Z,41.80
2018-03-20T19:06:05.530Z,42.30
2018-03-20T19:08:33.041Z,42.20
2018-03-20T19:11:00.520Z,42.50
2018-03-20T19:13:28.052Z,42.30
2018-03-20T19:15:55.549Z,43.60
2018-03-20T19:18:23.112Z,45.30
2018-03-20T19:20:50.609Z,45.90
2018-03-20T19:23:18.917Z,48.90
2018-03-20T19:25:46.394Z,48.90
2018-03-20T19:28:13.913Z,49.60
2018-03-20T19:30:41.392Z,50.30
2018-03-20T19:33:08.912Z,50.80
2018-03-20T19:35:37.207Z,52.00
2018-03-20T19:38:05.485Z,52.80
2018-03-20T19:40:32.976Z,52.80
2018-03-20T19:43:00.495Z,53.90
2018-03-20T19:45:28.743Z,55.60
2018-03-20T19:47:56.243Z,55.60
2018-03-20T19:50:23.779Z,56.10
2018-03-20T19:52:52.064Z,56.60
2018-03-20T19:55:20.309Z,57.40
2018-03-20T19:57:47.827Z,57.30
2018-03-20T20:00:15.342Z,58.10
2018-03-20T20:02:43.633Z,59.40
2018-03-20T20:05:11.891Z,60.30
2018-03-20T20:07:40.127Z,60.80
2018-03-20T20:10:07.641Z,60.70
2018-03-20T20:12:35.877Z,61.40
2018-03-20T20:15:03.396Z,61.40
2018-03-20T20:17:30.889Z,61.90
2018-03-20T20:19:58.392Z,62.50
2018-03-20T20:22:26.660Z,63.20
2018-03-20T20:24:54.986Z,64.10
2018-03-20T20:27:22.528Z,64.10
2018-03-20T20:29:50.082Z,65.10
2018-03-20T20:32:17.554Z,67.40
2018-03-20T20:34:45.078Z,67.80
2018-03-20T20:37:13.368Z,70.00
2018-03-20T20:39:40.889Z,69.90
2018-03-20T20:42:08.353Z,70.70
2018-03-20T20:44:36.018Z,71.80
2018-03-20T20:47:04.271Z,74.50
2018-03-20T20:49:31.751Z,74.40
2018-03-20T20:51:59.301Z,75.20
2018-03-20T20:54:26.819Z,75.90
2018-03-20T20:56:54.303Z,76.60
2018-03-20T20:59:21.805Z,77.70
2018-03-20T21:01:49.344Z,78.80
2018-03-20T21:04:17.745Z,81.00
2018-03-20T21:06:45.228Z,81.00
2018-03-20T21:09:12.723Z,81.80
2018-03-20T21:11:40.241Z,82.20
2018-03-20T21:14:07.733Z,82.70
2018-03-20T21:16:35.248Z,83.00
2018-03-20T21:19:02.784Z,83.00
2018-03-20T21:21:31.053Z,82.90
2018-03-20T21:23:58.536Z,82.90
2018-03-20T21:26:26.077Z,83.00
2018-03-20T21:28:54.339Z,84.40
2018-03-20T21:31:21.852Z,84.30
2018-03-20T21:33:49.361Z,85.00
2018-03-20T21:36:17.728Z,86.60
2018-03-20T21:38:45.203Z,86.50
2018-03-20T21:41:13.453Z,87.60
2018-03-20T21:43:40.998Z,87.60
2018-03-20T21:46:08.539Z,87.60
2018-03-20T21:48:36.084Z,87.70
2018-03-20T21:51:03.564Z,88.00
2018-03-20T21:53:31.085Z,88.40
2018-03-20T21:55:58.571Z,88.50
2018-03-20T21:58:26.863Z,89.30
2018-03-20T22:00:54.362Z,89.30
2018-03-20T22:03:22.671Z,90.30
2018-03-20T22:05:50.219Z,90.30
2018-03-20T22:08:17.803Z,90.20
2018-03-20T22:10:45.289Z,90.40
2018-03-20T22:13:12.831Z,90.60
2018-03-20T22:15:40.320Z,90.80
2018-03-20T22:18:07.853Z,91.10
2018-03-20T22:20:35.347Z,90.70
2018-03-20T22:23:03.634Z,91.00
2018-03-20T22:25:31.946Z,90.80
2018-03-20T22:27:59.494Z,90.70
2018-03-20T22:30:27.012Z,90.40
2018-03-20T22:32:54.502Z,90.20
2018-03-20T22:35:22.002Z,90.30
2018-03-20T22:37:49.552Z,90.20
2018-03-20T22:40:17.031Z,90.00
2018-03-20T22:42:44.605Z,90.00
2018-03-20T22:45:12.854Z,90.80
2018-03-20T22:47:40.346Z,91.10
2018-03-20T22:50:08.601Z,90.90
2018-03-20T22:52:36.123Z,90.80
2018-03-20T22:55:03.596Z,91.10
2018-03-20T22:57:31.087Z,91.10
2018-03-20T22:59:59.357Z,91.50
2018-03-20T23:02:27.637Z,91.70
2018-03-20T23:04:55.138Z,91.40
2018-03-20T23:07:22.825Z,92.00
2018-03-20T23:09:50.934Z,91.80
2018-03-20T23:12:18.402Z,91.90
2018-03-20T23:14:46.715Z,92.30
2018-03-20T23:17:14.183Z,92.30
2018-03-20T23:19:41.748Z,92.50
2018-03-20T23:22:09.237Z,93.00
2018-03-20T23:24:36.742Z,93.00
2018-03-20T23:27:04.221Z,93.10
2018-03-20T23:29:31.720Z,93.20
2018-03-20T23:31:59.962Z,93.70
2018-03-20T23:34:27.466Z,93.70
2018-03-20T23:36:55.713Z,93.40
2018-03-20T23:39:23.274Z,93.40
2018-03-20T23:41:50.778Z,93.50
2018-03-20T23:44:18.266Z,93.30
2018-03-20T23:46:45.869Z,93.20
2018-03-20T23:49:14.095Z,93.30
2018-03-20T23:51:41.601Z,92.90
2018-03-20T23:54:09.862Z,92.50
2018-03-20T23:56:37.363Z,92.50
2018-03-20T23:59:04.836Z,91.90
